Well Handicapped

 Today   Tomorrow
DATE COURSE TIME NO. HORSE ODDS POS TRAINER JOCKEY OR FM SP F A C V M PICK
21 Aug 2022 BRIGHTON 1:45 2 CABEZA DE LLAVE 31 1/20 Michael Attwater Rob Hornby 63 75 97 3
21 Aug 2022 BRIGHTON 1:45 4 FAIR AND SQUARE 13 1/20 Ronald Harris Rossa Ryan 60 82 99 2
21 Aug 2022 BRIGHTON 1:45 5 BATTLE POINT 13 1/20 Michael Attwater Joshua Bryan 55 74 93 4
21 Aug 2022 YARMOUTH 2:06 4 THANK THE LORD 9 1/20 Simon Hodgson Theodore Ladd 49 65 100 2
21 Aug 2022 YARMOUTH 2:06 1 LINCOLN PRIDE 18 1/20 David O'Meara Jason Watson 57 66 98 1
21 Aug 2022 YARMOUTH 2:06 2 OUR LOUISE 32 1/20 Phil McEntee Grace McEntee 3 55 64 99 3
20 Aug 2022 NEWTON ABBOT 1:42 1 EL PASO WOOD 3 13/2 David Pipe David Noonan 120 137 116 4
20 Aug 2022 NEWTON ABBOT 1:42 5 HELFORD RIVER 40 9/2 Joe Tizzard Brendan Powell 93 135 104 3
21 Aug 2022 BRIGHTON 2:45 3 SMEATON'S LIGHT 9 1/20 Mick Channon Rossa Ryan 76 90 104 4
21 Aug 2022 BRIGHTON 2:45 5 MICHAELS CHOICE 16 1/20 Eve Johnson Houghton George Downing 73 87 104 1
21 Aug 2022 BRIGHTON 2:45 6 BATCHELOR BOY 16 1/20 John Gallagher Joshua Bryan 72 86 104 2
21 Aug 2022 BRIGHTON 2:45 8 HOLBACHE 18 1/20 Tony Carroll Mollie Phillips 5 62 87 106 2
21 Aug 2022 BRIGHTON 2:45 7 TEMPLE BRUER 41 1/20 Mike Murphy & Michael Keady Marco Ghiani 71 86 101 5
21 Aug 2022 YARMOUTH 3:06 2 ICONIQUE 26 1/20 Charlie Fellowes Ray Dawson 68 77 102 1
21 Aug 2022 YARMOUTH 3:06 4 SHARP COMBO 15 1/20 Charlie & Mark Johnston Silvestre De Sousa 74 78 100 5
21 Aug 2022 YARMOUTH 3:06 5 SEAL OF SOLOMON 17 1/20 Ed Dunlop Neil Callan 70 76 99 3
20 Aug 2022 NEWTON ABBOT 2:17 3 HOOPER 41 7/4 Nicky Henderson James Bowen 131 144 111 1
21 Aug 2022 BRIGHTON 3:20 2 AUGUST PLACE 47 1st Hcap 1/20 Marco Botti Stefano Cherchi 3 69 73 93 3
21 Aug 2022 BRIGHTON 3:20 4 BAZALGETTE 19 1/20 Mick Channon Rossa Ryan 65 76 97 2
21 Aug 2022 BRIGHTON 3:20 3 AT LIBERTY 11 1/20 Michael Bell Rob Hornby 68 76 101 1
20 Aug 2022 YORK 2:25 11 SHEER ROCKS 14 17/1 Eve Johnson Houghton Tom Marquand 89 112 103 3
20 Aug 2022 YORK 2:25 12 ADJUVANT 24 33/1 Michael Bell Callum Hutchinson 5 88 113 105 11
20 Aug 2022 YORK 2:25 4 CAIUS CHORISTER 22 10/1 David Menuisier Pat Cosgrave 92 111 106 8
20 Aug 2022 YORK 2:25 10 INVERNESS 24 14/1 Charles Hills Kieran Shoemark 89 114 108 7
21 Aug 2022 YARMOUTH 3:36 2 ALETOILE 17 1/20 Chris Dwyer Silvestre De Sousa 54 66 100 2
21 Aug 2022 YARMOUTH 3:36 4 SENSE OF SECURITY 32 1/20 George Baker Daniel Muscutt 60 65 100 3
21 Aug 2022 YARMOUTH 3:36 6 AGENT OF FORTUNE 7 1/20 Anthony Carson Jonathan Fisher 5 47 66 96 1
21 Aug 2022 SANDOWN 3:42 9 ESPIRITO 9 1/20 Mark Usher Charlie Bennett 69 97 97 7
20 Aug 2022 CURRAGH 2:35 9 STAR IMAGE 7 13/1 Thomas Mullins Jamie Powell 7 72 103 102 9
20 Aug 2022 CURRAGH 2:35 2 KAZAKDARIA 35 3/1 D K Weld Chris Hayes 87 104 106 5
20 Aug 2022 CURRAGH 2:35 6 PACHMENA 17 6/1 Gavin Cromwell Wayne Lordan 78 107 111 1
20 Aug 2022 CURRAGH 2:35 5 EFFERNOCK FIZZ 15 12/1 Cian Michael Collins N G McCullagh 78 109 105 8
20 Aug 2022 CURRAGH 2:35 8 DARK VEGA 17 6/1 Mrs John Harrington Nathan Crosse 3 84 100 103 2
21 Aug 2022 BRIGHTON 3:50 4 DUE A RUM 38 1/20 Eve Johnson Houghton George Downing 61 69 110 3
21 Aug 2022 BRIGHTON 3:50 5 RETROUVAILLES 17 1/20 Mrs Ilka Gansera-Leveque Cameron Noble 51 67 106 3
21 Aug 2022 BRIGHTON 3:50 3 ROSE'S GIRL 23 1/20 Ed Dunlop Marco Ghiani 62 68 105 2
21 Aug 2022 BRIGHTON 3:50 6 VITESSE DU SON 11 1/20 Alice Haynes Christian Howarth 5 50 69 100 5
20 Aug 2022 KILLARNEY 2:45 16 WESTERN DOYEN 12 8/1 V T O'Brien Gavin Brouder 2 80 104 4
20 Aug 2022 KILLARNEY 2:45 10 O MIO BABBINO 37 25/1 Patrick Cronin E Walsh 83 103 11
20 Aug 2022 KILLARNEY 2:45 8 BETTERASK JJ 37 33/1 John J Walsh Cian Quirke 4 84 104 17
20 Aug 2022 KILLARNEY 2:45 5 JOAN OF PIMLICO 37 25/1 Brendan W Duke Conor Brassil 2 87 104 92 14
20 Aug 2022 KILLARNEY 2:45 18 GONDOR 19 9/1 C A Murphy 95 107 6
20 Aug 2022 KILLARNEY 2:45 9 BERGENTOWN 14 17/1 Philip Fenton Cathal Persse 4 83 110 7
20 Aug 2022 KILLARNEY 2:45 13 GRINN 19 16/1 David M O'Brien James O'Sullivan 80 106 8
20 Aug 2022 KILLARNEY 2:45 3 ADDED BONUS 12 25/1 John J Walsh Ambrose McCurtin 88 104 73 14
20 Aug 2022 KILLARNEY 2:45 19 SWEET WILL 78 17/2 Gavin Cromwell 93 106 64 5
20 Aug 2022 KILLARNEY 2:45 7 LET HER FLOW 9 7/1 Miss Denise Marie O'Shea Aidan Kelly 4 86 114 3
20 Aug 2022 NEWTON ABBOT 2:52 3 MERCIAN PRINCE 52 3/1 Amy Murphy Jack Quinlan 137 149 111 2
20 Aug 2022 NEWTON ABBOT 2:52 5 ROMANOR 40 3/1 Seamus Mullins Micheal Nolan 110 149 110 3
20 Aug 2022 NEWTON ABBOT 2:52 2 LEAPAWAY 25 13/2 Philip Hobbs Tom O'Brien 137 153 114 4
21 Aug 2022 YARMOUTH 4:06 4 MISTRIX 11 1/20 George Scott Daniel Muscutt 77 82 100 1
21 Aug 2022 YARMOUTH 4:06 1 SIR OLIVER 16 1/20 Chris Dwyer Silvestre De Sousa 78 84 107 4
21 Aug 2022 SANDOWN 4:12 4 DEVIL'S ANGEL 14 1/20 Jedd O'Keeffe Callum Shepherd 87 100 107 5
21 Aug 2022 SANDOWN 4:12 13 THE THIN BLUE LINE 14 1/20 Keith Dalgleish Callum Rodriguez 77 104 108 8
21 Aug 2022 SANDOWN 4:12 1 LORD RIDDIFORD 26 1/20 John Quinn Jason Hart 90 100 109 4
21 Aug 2022 SANDOWN 4:12 12 TREACHEROUS 6 1/20 Ed de Giles Trevor Whelan 78 105 108 1
21 Aug 2022 SANDOWN 4:12 14 PRIMO'S COMET 29 1/20 Jim Goldie William Buick 75 101 107 1
21 Aug 2022 SANDOWN 4:12 9 BE PROUD 37 1/20 Jim Goldie Paul Mulrennan 82 101 109 5
21 Aug 2022 BRIGHTON 4:20 1 ELOSO 12 1/20 Gay Kelleway Liam Wright 7 67 73 103 3
21 Aug 2022 BRIGHTON 4:20 4 DAWN VIEW 26 1/20 Stuart Williams Luke Catton 5 57 67 104 4
21 Aug 2022 BRIGHTON 4:20 2 PLATINUM PRINCE 81 1/20 Gary Moore Anna Gibson 7 60 74 107 2
21 Aug 2022 BRIGHTON 4:20 3 GIRL INTHE PICTURE 17 1/20 Ed Dunlop Marco Ghiani 65 68 107 1
21 Aug 2022 NAAS 4:30 14 STANHOPE 8 1/20 John C McConnell 54 72 101 9
21 Aug 2022 NAAS 4:30 8 ANDROMEDAS KINGDOM 81 1/20 M C Grassick Gavin Ryan 55 68 100 5
21 Aug 2022 NAAS 4:30 6 TAWAAZON 9 1/20 Denis Gerard Hogan 57 71 97 19
21 Aug 2022 NAAS 4:30 23 INVINCIBLE OURSE 9 1/20 David Kenneth Budds Shane Foley 48 63 91 9
21 Aug 2022 NAAS 4:30 22 WAIT A LITTLE 30 1/20 James M Barcoe Ben Coen 47 73 90 13
21 Aug 2022 NAAS 4:30 5 HODD'S GIRL 111 1/20 Adrian McGuinness Adam Caffrey 7 57 72 102 19
21 Aug 2022 NAAS 4:30 16 BORN INVINCIBLE 20 1/20 Gerard O'Leary Dylan Browne McMonagle 51 65 104 1
21 Aug 2022 NAAS 4:30 11 HASTILY 9 1/20 Tom McGuinness 56 62 74 11
21 Aug 2022 NAAS 4:30 15 TEDDY BOY 20 1/20 Edward Lynam Danny Sheehy 3 54 69 102 15
21 Aug 2022 NAAS 4:30 19 COFFEEMEANSCOFFEE 9 1/20 Tom McGuinness 47 75 103 13
21 Aug 2022 NAAS 4:30 1 LION RING 8 1/20 Denis Gerard Hogan Sean D Bowen 7 60 67 104 1
21 Aug 2022 NAAS 4:30 9 TAMMANY HALL 8 1/20 Patrick J McKenna Killian Leonard 55 69 102 3
21 Aug 2022 NAAS 4:30 2 EMPRESS OF BOUGH 9 1/20 Anthony McCann Shane Markey 10 60 66 97 3
21 Aug 2022 NAAS 4:30 3 PEPPERMINT BAY 16 1st Hcap 1/20 John James Feane Kevin Manning 58 64 87 5
21 Aug 2022 NAAS 4:30 7 MARKIEVICZ 20 1/20 Ms Sheila Lavery Robbie Colgan 56 69 101 19
21 Aug 2022 NAAS 4:30 4 BELARDEEN 32 1/20 Miss Hilary McLoughlin Jake Coen 5 57 74 101 5
21 Aug 2022 NAAS 4:30 25 STICKYOURNECKOUT 51 1/20 J F Levins J M Sheridan 3 47 64 100 19
21 Aug 2022 NAAS 4:30 17 ELEUTHERA 20 1/20 J F Levins Donagh O'Connor 48 71 100 11
21 Aug 2022 NAAS 4:30 21 TWO METRES APART 53 1/20 M J Byrne Sarah Verling 10 47 67 106 5
20 Aug 2022 SANDOWN 3:15 3 GISBURN 7 11/1 Richard Hannon Pat Dobbs 96 109 106 7
20 Aug 2022 SANDOWN 3:15 2 TOMFRE 84 6/1 Ralph Beckett Hector Crouch 95 108 108 6
21 Aug 2022 YARMOUTH 4:36 4 KRAKA 17 1/20 Christine Dunnett Collen Storey 47 65 94 1
21 Aug 2022 YARMOUTH 4:36 3 COSTA ADEJE 15 1/20 Tom Dascombe Pierre-Louis Jamin 3 53 64 99 2
20 Aug 2022 SANDOWN 3:15 6 GLOBAL ESTEEM 16 7/1 John Gallagher Richard Kingscote 82 102 107 3
21 Aug 2022 YARMOUTH 4:36 6 ELSAAB 18 1/20 S Woods Robert Havlin 52 63 102 2
20 Aug 2022 SANDOWN 3:15 5 PRONTISSIMO 15 11/1 Patrick Owens Louis Steward 88 105 109 4
20 Aug 2022 SANDOWN 3:15 1 AL RUFAA 14 4/1 John & Thady Gosden Robert Havlin 96 101 113 2
21 Aug 2022 YARMOUTH 4:36 1 HI HO SILVER 11 1/20 Chris Wall Kaiya Fraser 7 53 64 101 4
21 Aug 2022 YARMOUTH 4:36 2 LITTLE SUNFLOWER 11 1/20 William Stone Dylan Hogan 52 63 97 4
20 Aug 2022 KILLARNEY 3:20 4 MARS HARPER 21 17/2 Gordon Elliott Denis O'Regan 129 151 97 8
20 Aug 2022 KILLARNEY 3:20 10 SNUGSBOROUGH HALL 67 16/1 Liam P Cusack Adam Ellis 7 119 150 104 9
20 Aug 2022 KILLARNEY 3:20 1 FINEST EVERMORE 21 9/2 W P Mullins Danny Mullins 137 153 104 6
20 Aug 2022 KILLARNEY 3:20 9 FLYING SCOTSMAN 24 5/1 Joseph Patrick O'Brien Mark Walsh 123 151 5
20 Aug 2022 KILLARNEY 3:20 5 DOCTOR DUFFY 14 10/1 C Byrnes Philip Byrnes 7 128 154 105 3
21 Aug 2022 BRIGHTON 4:50 5 MINT JULEP 19 1/20 Daniel Steele Mr Freddie Mitchell 46 49 97 3
20 Aug 2022 NEWTON ABBOT 3:27 5 LOVED OUT 18 4/1 Evan Williams Isabel Williams 3 95 126 104 4
21 Aug 2022 BRIGHTON 4:50 4 JACK D'OR 18 1/20 Jack Jones Mr Matthew Ennis 47 44 104 1
20 Aug 2022 NEWTON ABBOT 3:27 3 HIDDEN DEPTHS 39 13/2 Neil Mulholland Sam Twiston-Davies 110 128 113 5
20 Aug 2022 NEWTON ABBOT 3:27 4 MARIA MAGDALENA 29 9/2 Alex Hales Harry Bannister 107 126 103 2
21 Aug 2022 BRIGHTON 4:50 3 DEVORGILLA 46 1/20 George Baker Mr Simon Walker 48 43 95 7
21 Aug 2022 BRIGHTON 4:50 7 ASENSE 18 1st Hcap 1/20 Gary Moore Miss Maddison Wright 7 50 48 101 2
21 Aug 2022 BRIGHTON 4:50 2 SILVER BUBBLE 17 1/20 Gay Kelleway Mr Ross Birkett 49 46 102 3
20 Aug 2022 YORK 3:35 7 OKITA SOUSHI 44 15/1 Joseph Patrick O'Brien M P Sheehy 3 106 117 112 7
20 Aug 2022 YORK 3:35 8 GLOBAL STORM 22 33/1 Charlie Appleby William Buick 106 117 114 14
20 Aug 2022 YORK 3:35 13 LICENCE 16 1st Hcap 19/1 G M Lyons Gary Carroll 103 115 118 8
20 Aug 2022 YORK 3:35 9 RODRIGO DIAZ 50 50/1 David Simcock Jamie Spencer 105 118 107 14
20 Aug 2022 YORK 3:35 11 RAYMOND TUSK 49 33/1 Alan King Martin Harley 104 118 110 14
20 Aug 2022 YORK 3:35 17 EUCHEN GLEN 21 14/1 Jim Goldie Paul Mulrennan 102 120 107 4
20 Aug 2022 YORK 3:35 12 CANDLEFORD 43 13/1 William Haggas Tom Marquand 104 118 114 3
20 Aug 2022 YORK 3:35 20 QUENELLE D'OR 44 66/1 Hugo Palmer Neil Callan 100 115 112 14
20 Aug 2022 YORK 3:35 3 MAX VEGA 22 40/1 Ralph Beckett Rob Hornby 109 118 110 14
20 Aug 2022 YORK 3:35 21 ALFRED BOUCHER 3 13/1 Ian Williams P J McDonald 100 117 112 6
20 Aug 2022 YORK 3:35 16 CALLING THE WIND 50 40/1 Richard Hughes Pat Cosgrave 103 119 109 14
20 Aug 2022 CHESTER 3:40 8 BULLACE 29 9/1 Ralph Beckett J F Egan 90 111 108 4
21 Aug 2022 YARMOUTH 5:06 6 TURN OF PHRASE 9 1/20 John Berry Faye McManoman 3 45 73 102 5
20 Aug 2022 CHESTER 3:40 12 CASSY O 7 22/1 Tim Easterby Duran Fentiman 78 111 109 11
20 Aug 2022 CHESTER 3:40 11 PAWS FOR THOUGHT 20 14/1 Donald McCain Andrew Mullen 85 110 105 2
21 Aug 2022 YARMOUTH 5:06 3 SIOFRA 256 1/20 George Scott Daniel Muscutt 55 70 97 2
20 Aug 2022 CHESTER 3:40 10 POSITIVE IMPACT 21 11/2 Simon & Ed Crisford Harry Burns 5 91 104 103 6
20 Aug 2022 CHESTER 3:40 5 PERCY'S LAD 46 19/1 Daniel & Claire Kubler Tom Eaves 94 107 102 12
21 Aug 2022 YARMOUTH 5:06 4 AVAILABLE ANGEL 11 1/20 John Mackie Connor Murtagh 54 66 100 1
20 Aug 2022 CHESTER 3:40 2 FOOLS RUSH IN 20 11/2 Hugo Palmer Harry Davies 3 98 104 111 1
20 Aug 2022 CHESTER 3:40 9 TITAN ROCK 24 4/1 John Quinn Jason Hart 89 105 109 5
21 Aug 2022 YARMOUTH 5:06 2 ANGLO SAXSON 17 1/20 Patrick Owens Thore Hammer Hansen 55 68 96 4
20 Aug 2022 CHESTER 3:40 7 ABSOLUTE RULER 56 28/1 Jennie Candlish David Nolan 96 105 108 13
20 Aug 2022 CHESTER 3:40 3 BOARDMAN 49 11/1 Tim Easterby Sean Kirrane 3 98 109 112 7
20 Aug 2022 CHESTER 3:40 1 SAFE VOYAGE 56 17/1 John Quinn Harrison Shaw 98 112 110 8
21 Aug 2022 YARMOUTH 5:06 5 STRANGER THINGS 17 1/20 Matt Crawley Darragh Keenan 46 64 93 3
21 Aug 2022 SANDOWN 5:12 2 BAD COMPANY 17 1/20 Jim Boyle Paddy Bradley 87 94 109 3
21 Aug 2022 SANDOWN 5:12 17 FIVE ZEROS 16 1/20 Nigel Thomas Slevin Gina Mangan 3 64 91 113 2
21 Aug 2022 SANDOWN 5:12 3 DANDY MAESTRO 20 1/20 Richard Spencer William Pyle 7 83 92 107 5
21 Aug 2022 SANDOWN 5:12 8 PLEDGE OF HONOUR 17 1/20 Dean Ivory William Cox 79 91 113 1
21 Aug 2022 SANDOWN 5:12 16 TOMMY G 10 1/20 Jim Goldie Shannon Watts 7 69 101 107 11
21 Aug 2022 SANDOWN 5:12 10 OH HERBERTS REIGN 22 1/20 Richard Hannon Alec Voikhansky 7 85 99 105 9
21 Aug 2022 SANDOWN 5:12 11 LAWN RANGER 71 1/20 Michael Attwater Saffie Osborne 75 102 108 9
21 Aug 2022 SANDOWN 5:12 6 FIRST IMPRESSION 91 1/20 John Quinn Ryan Sexton 3 81 91 106 15
21 Aug 2022 SANDOWN 5:12 9 SCHMILSSON 24 1/20 Andrew Balding Callum Hutchinson 3 85 93 100 11
21 Aug 2022 SANDOWN 5:12 4 ANYTHINGTODAY 14 1/20 Roger Fell Jonny Peate 3 83 94 107 15
21 Aug 2022 SANDOWN 5:12 15 CARP KID 20 1/20 John Flint Aidan Keeley 5 69 94 107 5
21 Aug 2022 NAAS 5:30 2 KODIAC PRINCE 20 1/20 Thomas Cleary Adam Caffrey 4 75 85 104 5
21 Aug 2022 NAAS 5:30 13 STAR OF CASHEL 16 1/20 Adrian McGuinness Cian MacRedmond 2 65 89 105 9
21 Aug 2022 NAAS 5:30 18 CLEOPATRA'S NEEDLE 6 1/20 H Rogers Siobhan Rutledge 54 80 106 18
21 Aug 2022 NAAS 5:30 6 NOBLE CRUSADE 22 1/20 John C McConnell 73 81 103 14
20 Aug 2022 SANDOWN 3:50 2 PALAVECINO 25 66/1 Brian Meehan Thomas Greatrex 100 107 103 12
21 Aug 2022 NAAS 5:30 16 LOOM LARGE 104 1/20 A Oliver Robert Whearty 4 69 81 96 9
20 Aug 2022 SANDOWN 3:50 6 ARQOOB 25 26/1 William Jarvis Jason Watson 93 108 117 9
21 Aug 2022 NAAS 5:30 15 OBSERVING 24 1/20 R P Cody James Ryan 4 70 81 109 9
21 Aug 2022 NAAS 5:30 10 KALAROUN 76 1/20 Miss Tara Lee Cogan J Cleary 4 70 86 105 4
20 Aug 2022 SANDOWN 3:50 9 GOOD BIRTHDAY 16 19/1 Andrew Balding Joshua Bryan 89 108 107 10
20 Aug 2022 SANDOWN 3:50 8 PROTAGONIST 21 17/2 William Haggas Cieren Fallon 90 109 105 2
21 Aug 2022 NAAS 5:30 7 COEUR D'OR 34 1/20 D K Weld Oisin Enright 7 72 82 105 9
21 Aug 2022 NAAS 5:30 3 DARE TO FLARE 16 1/20 Andrew Slattery Cian Horgan 4 73 87 107 1
21 Aug 2022 NAAS 5:30 4 FOCUS REQUIRED 17 1/20 Luke Comer Jake Coen 2 73 79 113 2
21 Aug 2022 NAAS 5:30 19 LOINGSEOIR 20 1/20 M C Grassick 81 81 112 3
20 Aug 2022 SANDOWN 3:50 5 VICTORY CHIME 35 33/1 Ralph Beckett Hector Crouch 97 120 116